createdAt,value
2022-10-13T00:00:41.542Z,101682.00
2022-10-13T00:03:10.947Z,101684.00
2022-10-13T00:05:43.302Z,101679.00
2022-10-13T00:08:14.301Z,101680.00
2022-10-13T00:10:51.443Z,101678.00
2022-10-13T00:13:25.822Z,101679.00
2022-10-13T00:15:54.997Z,101674.00
2022-10-13T00:18:24.621Z,101680.00
2022-10-13T00:20:53.451Z,101680.00
2022-10-13T00:23:22.194Z,101685.00
2022-10-13T00:25:53.103Z,101688.00
2022-10-13T00:28:23.419Z,101686.00
2022-10-13T00:30:52.170Z,101690.00
2022-10-13T00:33:20.870Z,101682.00
2022-10-13T00:35:51.448Z,101680.00
2022-10-13T00:38:23.254Z,101683.00
2022-10-13T00:40:56.289Z,101685.00
2022-10-13T00:46:12.925Z,101682.00
2022-10-13T00:48:44.611Z,101687.00
2022-10-13T00:51:20.653Z,101684.00
2022-10-13T00:53:56.808Z,101677.00
2022-10-13T00:56:30.444Z,101681.00
2022-10-13T00:59:01.318Z,101675.00
2022-10-13T01:01:30.801Z,101683.00
2022-10-13T01:03:59.945Z,101684.00
2022-10-13T01:06:32.001Z,101674.00
2022-10-13T01:09:01.897Z,101682.00
2022-10-13T01:11:54.931Z,101690.00
2022-10-13T01:14:35.393Z,101682.00
2022-10-13T01:17:16.431Z,101681.00
2022-10-13T01:20:38.673Z,101682.00
2022-10-13T01:23:31.202Z,101685.00
2022-10-13T01:26:44.783Z,101688.00
2022-10-13T01:29:50.194Z,101693.00
2022-10-13T01:33:07.034Z,101696.00
2022-10-13T01:35:54.951Z,101696.00
2022-10-13T01:38:38.592Z,101696.00
2022-10-13T01:41:16.085Z,101697.00
2022-10-13T01:43:51.921Z,101689.00
2022-10-13T01:46:27.497Z,101692.00
2022-10-13T01:49:04.167Z,101689.00
2022-10-13T01:51:35.030Z,101704.00
2022-10-13T01:54:04.551Z,101697.00
2022-10-13T01:56:40.868Z,101701.00
2022-10-13T01:59:15.485Z,101700.00
2022-10-13T02:02:04.796Z,101703.00
2022-10-13T02:04:54.996Z,101704.00
2022-10-13T02:07:30.070Z,101696.00
2022-10-13T02:10:13.075Z,101706.00
2022-10-13T02:12:54.716Z,101698.00
2022-10-13T02:15:29.998Z,101699.00
2022-10-13T02:18:05.973Z,101693.00
2022-10-13T02:20:38.418Z,101709.00
2022-10-13T02:23:14.009Z,101709.00
2022-10-13T02:25:44.741Z,101704.00
2022-10-13T02:28:16.588Z,101707.00
2022-10-13T02:30:49.548Z,101712.00
2022-10-13T02:33:18.569Z,101703.00
2022-10-13T02:35:48.713Z,101714.00
2022-10-13T02:38:17.455Z,101715.00
2022-10-13T02:40:47.139Z,101712.00
2022-10-13T02:43:16.941Z,101707.00
2022-10-13T02:45:46.170Z,101708.00
2022-10-13T02:48:15.093Z,101715.00
2022-10-13T02:50:44.345Z,101716.00
2022-10-13T02:53:17.232Z,101708.00
2022-10-13T02:55:46.708Z,101714.00
2022-10-13T02:58:15.980Z,101721.00
2022-10-13T03:01:15.304Z,101723.00
2022-10-13T03:03:46.286Z,101716.00
2022-10-13T03:06:15.631Z,101719.00
2022-10-13T03:08:46.007Z,101722.00
2022-10-13T03:11:15.549Z,101729.00
2022-10-13T03:13:50.554Z,101729.00
2022-10-13T03:16:19.437Z,101724.00
2022-10-13T03:18:48.224Z,101729.00
2022-10-13T03:21:17.121Z,101718.00
2022-10-13T03:23:47.243Z,101733.00
2022-10-13T03:26:18.160Z,101735.00
2022-10-13T03:28:51.748Z,101730.00
2022-10-13T03:31:20.793Z,101733.00
2022-10-13T03:33:49.752Z,101735.00
2022-10-13T03:36:23.354Z,101734.00
2022-10-13T03:38:53.463Z,101733.00
2022-10-13T03:41:22.882Z,101737.00
2022-10-13T03:43:53.532Z,101737.00
2022-10-13T03:46:29.474Z,101738.00
2022-10-13T03:49:00.456Z,101745.00
2022-10-13T03:51:32.196Z,101736.00
2022-10-13T03:54:02.806Z,101750.00
2022-10-13T03:56:36.336Z,101747.00
2022-10-13T03:59:05.259Z,101747.00
2022-10-13T04:01:34.951Z,101741.00
2022-10-13T04:04:08.221Z,101744.00
2022-10-13T04:06:36.923Z,101750.00
2022-10-13T04:09:08.057Z,101739.00
2022-10-13T04:11:40.015Z,101737.00
2022-10-13T04:14:12.464Z,101742.00
2022-10-13T04:16:41.212Z,101745.00
2022-10-13T04:19:12.890Z,101756.00
2022-10-13T04:21:41.829Z,101761.00
2022-10-13T04:24:14.584Z,101752.00
2022-10-13T04:26:43.564Z,101755.00
2022-10-13T04:29:13.997Z,101761.00
2022-10-13T04:31:44.093Z,101758.00
2022-10-13T04:34:14.646Z,101757.00
2022-10-13T04:36:43.395Z,101762.00
2022-10-13T04:39:13.572Z,101763.00
2022-10-13T04:41:42.239Z,101761.00
2022-10-13T04:44:11.136Z,101761.00
2022-10-13T04:46:40.247Z,101772.00
2022-10-13T04:49:09.091Z,101780.00
2022-10-13T04:51:40.589Z,101775.00
2022-10-13T04:54:12.832Z,101776.00
2022-10-13T04:56:45.247Z,101782.00
2022-10-13T04:59:14.491Z,101778.00
2022-10-13T05:01:43.656Z,101776.00
2022-10-13T05:04:15.330Z,101783.00
2022-10-13T05:07:12.544Z,101783.00
2022-10-13T05:09:34.671Z,101785.00
2022-10-13T05:12:08.798Z,101785.00
2022-10-13T05:14:37.686Z,101781.00
2022-10-13T05:17:10.081Z,101790.00
2022-10-13T05:19:54.193Z,101788.00
2022-10-13T05:22:23.590Z,101785.00
2022-10-13T05:24:53.687Z,101785.00
2022-10-13T05:27:23.278Z,101790.00
2022-10-13T05:29:52.444Z,101782.00
2022-10-13T05:32:21.438Z,101789.00
2022-10-13T05:34:50.911Z,101791.00
2022-10-13T05:37:22.748Z,101781.00
2022-10-13T05:39:55.526Z,101790.00
2022-10-13T05:42:27.994Z,101789.00
2022-10-13T05:45:00.373Z,101789.00
2022-10-13T05:47:33.735Z,101787.00
2022-10-13T05:50:04.118Z,101791.00
2022-10-13T05:52:38.266Z,101789.00
2022-10-13T05:55:12.274Z,101786.00
2022-10-13T05:57:45.142Z,101794.00
2022-10-13T06:00:18.765Z,101802.00
2022-10-13T06:02:56.519Z,101793.00
2022-10-13T06:05:28.610Z,101800.00
2022-10-13T06:07:58.612Z,101792.00
2022-10-13T06:10:29.225Z,101789.00
2022-10-13T06:12:57.995Z,101803.00
2022-10-13T06:15:28.276Z,101796.00
2022-10-13T06:17:58.316Z,101798.00
2022-10-13T06:20:27.589Z,101804.00
2022-10-13T06:22:56.728Z,101799.00
2022-10-13T06:25:25.650Z,101808.00
2022-10-13T06:27:55.757Z,101807.00
2022-10-13T06:30:24.691Z,101809.00
2022-10-13T06:32:55.497Z,101805.00
2022-10-13T06:35:24.690Z,101812.00
2022-10-13T06:37:53.547Z,101807.00
2022-10-13T06:40:22.261Z,101811.00
2022-10-13T06:42:52.133Z,101815.00
2022-10-13T06:45:25.872Z,101817.00
2022-10-13T06:47:55.015Z,101816.00
2022-10-13T06:50:24.116Z,101813.00
2022-10-13T06:52:53.233Z,101818.00
2022-10-13T06:55:22.248Z,101818.00
2022-10-13T06:57:50.911Z,101816.00
2022-10-13T07:00:20.120Z,101816.00
2022-10-13T07:02:53.484Z,101823.00
2022-10-13T07:05:22.508Z,101809.00
2022-10-13T07:07:54.245Z,101815.00
2022-10-13T07:10:23.390Z,101805.00
2022-10-13T07:12:52.179Z,101816.00
2022-10-13T07:15:20.881Z,101822.00
2022-10-13T07:17:54.045Z,101826.00
2022-10-13T07:20:23.181Z,101824.00
2022-10-13T07:22:55.070Z,101829.00
2022-10-13T07:25:23.910Z,101829.00
2022-10-13T07:27:52.599Z,101826.00
2022-10-13T07:30:21.490Z,101819.00
2022-10-13T07:32:50.769Z,101834.00
2022-10-13T07:35:25.833Z,101824.00
2022-10-13T07:37:58.365Z,101820.00
2022-10-13T07:40:27.305Z,101819.00
2022-10-13T07:42:58.108Z,101827.00
2022-10-13T07:45:27.508Z,101828.00
2022-10-13T07:47:57.075Z,101830.00
2022-10-13T07:50:30.030Z,101825.00
2022-10-13T07:52:58.683Z,101822.00
2022-10-13T07:55:27.508Z,101824.00
2022-10-13T07:57:56.410Z,101827.00
2022-10-13T08:00:26.352Z,101831.00
2022-10-13T08:02:56.354Z,101828.00
2022-10-13T08:05:25.248Z,101824.00
2022-10-13T08:07:58.289Z,101828.00
2022-10-13T08:10:29.439Z,101826.00
2022-10-13T08:12:58.227Z,101832.00
2022-10-13T08:15:27.110Z,101836.00
2022-10-13T08:17:56.672Z,101829.00
2022-10-13T08:20:36.186Z,101838.00
2022-10-13T08:23:14.771Z,101831.00
2022-10-13T08:25:50.577Z,101838.00
2022-10-13T08:28:23.220Z,101837.00
2022-10-13T08:30:53.520Z,101837.00
2022-10-13T08:33:22.592Z,101842.00
2022-10-13T08:35:51.729Z,101841.00
2022-10-13T08:38:22.685Z,101836.00
2022-10-13T08:40:53.397Z,101840.00
2022-10-13T08:43:25.344Z,101838.00
2022-10-13T08:46:01.381Z,101840.00
2022-10-13T08:48:36.362Z,101843.00
2022-10-13T08:51:08.855Z,101834.00
2022-10-13T08:53:44.354Z,101833.00
2022-10-13T08:56:21.175Z,101836.00
2022-10-13T08:58:56.785Z,101833.00
2022-10-13T09:01:30.905Z,101835.00
2022-10-13T09:04:33.103Z,101836.00
2022-10-13T09:07:08.372Z,101847.00
2022-10-13T09:09:39.772Z,101832.00
2022-10-13T09:12:08.781Z,101837.00
2022-10-13T09:14:40.493Z,101840.00
2022-10-13T09:17:19.816Z,101842.00
2022-10-13T09:20:00.858Z,101839.00
2022-10-13T09:22:32.427Z,101837.00
2022-10-13T09:25:16.982Z,101833.00
2022-10-13T09:27:50.062Z,101828.00
2022-10-13T09:30:38.733Z,101836.00
2022-10-13T09:33:23.472Z,101839.00
2022-10-13T09:36:12.314Z,101837.00
2022-10-13T09:38:43.582Z,101837.00
2022-10-13T09:41:22.163Z,101837.00
2022-10-13T09:44:10.485Z,101831.00
2022-10-13T09:46:48.922Z,101829.00
2022-10-13T09:49:34.763Z,101829.00
2022-10-13T09:52:17.831Z,101823.00
2022-10-13T09:54:50.240Z,101831.00
2022-10-13T09:57:34.290Z,101829.00
2022-10-13T10:00:14.727Z,101826.00
2022-10-13T10:02:54.186Z,101826.00
2022-10-13T10:05:30.614Z,101827.00
2022-10-13T10:08:14.045Z,101825.00
2022-10-13T10:10:43.329Z,101819.00
2022-10-13T10:13:15.584Z,101823.00
2022-10-13T10:16:00.067Z,101822.00
2022-10-13T10:18:39.175Z,101824.00
2022-10-13T10:21:14.814Z,101819.00
2022-10-13T10:23:51.490Z,101823.00
2022-10-13T10:26:32.380Z,101815.00
2022-10-13T10:29:24.561Z,101813.00
2022-10-13T10:32:12.553Z,101817.00
2022-10-13T10:34:48.671Z,101817.00
2022-10-13T10:37:26.885Z,101826.00
2022-10-13T10:40:14.034Z,101822.00
2022-10-13T10:43:26.882Z,101828.00
2022-10-13T10:46:00.441Z,101826.00
2022-10-13T10:48:38.032Z,101817.00
2022-10-13T10:51:09.859Z,101821.00
2022-10-13T10:53:53.648Z,101820.00
2022-10-13T10:56:33.767Z,101817.00
2022-10-13T10:59:26.209Z,101825.00
2022-10-13T11:02:15.974Z,101823.00
2022-10-13T11:04:47.285Z,101823.00
2022-10-13T11:08:02.086Z,101813.00
2022-10-13T11:10:31.558Z,101815.00
2022-10-13T11:13:27.475Z,101817.00
2022-10-13T11:15:56.812Z,101821.00
2022-10-13T11:19:05.913Z,101818.00
2022-10-13T11:22:17.089Z,101825.00
2022-10-13T11:25:36.414Z,101827.00
2022-10-13T11:28:49.091Z,101823.00
2022-10-13T11:31:48.347Z,101817.00
2022-10-13T11:34:33.235Z,101816.00
2022-10-13T11:37:03.708Z,101811.00
2022-10-13T11:40:19.203Z,101811.00
2022-10-13T11:43:11.259Z,101812.00
2022-10-13T11:46:25.844Z,101818.00
2022-10-13T11:49:32.023Z,101814.00
2022-10-13T11:52:28.330Z,101814.00
2022-10-13T11:55:06.624Z,101813.00
2022-10-13T11:57:36.821Z,101805.00
2022-10-13T12:00:14.523Z,101806.00
2022-10-13T12:02:51.639Z,101817.00
2022-10-13T12:05:25.977Z,101810.00
2022-10-13T12:08:00.351Z,101807.00
2022-10-13T12:10:34.444Z,101803.00
2022-10-13T12:13:07.057Z,101798.00
2022-10-13T12:15:39.540Z,101800.00
2022-10-13T12:18:24.298Z,101797.00
2022-10-13T12:20:59.037Z,101785.00
2022-10-13T12:23:28.989Z,101795.00
2022-10-13T12:25:59.280Z,101799.00
2022-10-13T12:28:44.272Z,101800.00
2022-10-13T12:31:22.324Z,101800.00
2022-10-13T12:33:56.372Z,101802.00
2022-10-13T12:36:31.260Z,101795.00
2022-10-13T12:39:04.583Z,101789.00
2022-10-13T12:41:37.227Z,101793.00
2022-10-13T12:44:13.384Z,101799.00
2022-10-13T12:46:44.947Z,101793.00
2022-10-13T12:49:18.051Z,101791.00
2022-10-13T12:51:50.500Z,101784.00
2022-10-13T12:54:25.545Z,101791.00
2022-10-13T12:56:58.817Z,101781.00
2022-10-13T12:59:31.867Z,101786.00
2022-10-13T13:02:04.002Z,101789.00
2022-10-13T13:04:43.295Z,101778.00
2022-10-13T13:07:31.603Z,101778.00
2022-10-13T13:10:16.447Z,101780.00
2022-10-13T13:12:46.338Z,101780.00
2022-10-13T13:15:35.700Z,101778.00
2022-10-13T13:18:39.772Z,101777.00
2022-10-13T13:21:10.173Z,101776.00
2022-10-13T13:23:43.281Z,101778.00
2022-10-13T13:26:15.356Z,101783.00
2022-10-13T13:28:48.463Z,101776.00
2022-10-13T13:31:21.326Z,101776.00
2022-10-13T13:33:50.529Z,101770.00
2022-10-13T13:36:22.098Z,101768.00
2022-10-13T13:38:54.969Z,101769.00
2022-10-13T13:41:27.726Z,101771.00
2022-10-13T13:43:56.736Z,101784.00
2022-10-13T13:46:29.227Z,101786.00
2022-10-13T13:49:03.441Z,101778.00
2022-10-13T13:51:33.628Z,101778.00
2022-10-13T13:54:05.472Z,101778.00
2022-10-13T13:56:34.606Z,101774.00
2022-10-13T13:59:03.382Z,101777.00
2022-10-13T14:01:33.810Z,101775.00
2022-10-13T14:04:03.202Z,101773.00
2022-10-13T14:06:31.969Z,101777.00
2022-10-13T14:09:00.725Z,101777.00
2022-10-13T14:11:29.424Z,101777.00
2022-10-13T14:14:01.958Z,101784.00
2022-10-13T14:16:32.296Z,101782.00
2022-10-13T14:19:01.295Z,101779.00
2022-10-13T14:21:30.642Z,101776.00
2022-10-13T14:24:00.750Z,101775.00
2022-10-13T14:26:29.709Z,101780.00
2022-10-13T14:28:58.972Z,101771.00
2022-10-13T14:31:27.697Z,101781.00
2022-10-13T14:33:59.021Z,101779.00
2022-10-13T14:36:29.715Z,101791.00
2022-10-13T14:38:59.148Z,101782.00
2022-10-13T14:41:28.229Z,101786.00
2022-10-13T14:43:58.303Z,101771.00
2022-10-13T14:46:27.421Z,101783.00
2022-10-13T14:48:59.041Z,101776.00
2022-10-13T14:51:27.902Z,101772.00
2022-10-13T14:53:58.952Z,101779.00
2022-10-13T14:56:34.406Z,101770.00
2022-10-13T14:59:05.953Z,101782.00
2022-10-13T15:01:43.740Z,101776.00
2022-10-13T15:04:13.800Z,101774.00
2022-10-13T15:06:42.833Z,101778.00
2022-10-13T15:09:12.991Z,101782.00
2022-10-13T15:11:46.335Z,101782.00
2022-10-13T15:14:15.247Z,101775.00
2022-10-13T15:16:44.154Z,101774.00
2022-10-13T15:19:14.197Z,101768.00
2022-10-13T15:21:43.224Z,101761.00
2022-10-13T15:24:12.794Z,101773.00
2022-10-13T15:26:45.822Z,101764.00
2022-10-13T15:29:14.763Z,101763.00
2022-10-13T15:31:44.030Z,101770.00
2022-10-13T15:34:16.555Z,101769.00
2022-10-13T15:36:48.940Z,101766.00
2022-10-13T15:39:18.325Z,101771.00
2022-10-13T15:41:47.632Z,101768.00
2022-10-13T15:44:19.762Z,101775.00
2022-10-13T15:47:06.583Z,101775.00
2022-10-13T15:49:38.716Z,101766.00
2022-10-13T15:52:07.633Z,101762.00
2022-10-13T15:54:36.577Z,101770.00
2022-10-13T15:57:05.586Z,101765.00
2022-10-13T15:59:34.526Z,101759.00
2022-10-13T16:02:03.929Z,101771.00
2022-10-13T16:04:37.287Z,101769.00
2022-10-13T16:07:08.036Z,101770.00
2022-10-13T16:09:36.877Z,101779.00
2022-10-13T16:12:06.381Z,101767.00
2022-10-13T16:14:35.434Z,101771.00
2022-10-13T16:17:05.309Z,101776.00
2022-10-13T16:19:34.566Z,101769.00
2022-10-13T16:22:04.171Z,101775.00
2022-10-13T16:24:35.264Z,101771.00
2022-10-13T16:27:06.307Z,101768.00
2022-10-13T16:29:36.352Z,101774.00
2022-10-13T16:32:05.667Z,101773.00
2022-10-13T16:34:34.967Z,101771.00
2022-10-13T16:37:04.301Z,101761.00
2022-10-13T16:39:39.930Z,101758.00
2022-10-13T16:42:11.668Z,101750.00
2022-10-13T16:44:43.915Z,101756.00
2022-10-13T16:47:17.445Z,101757.00
2022-10-13T16:49:48.270Z,101758.00
2022-10-13T16:52:18.530Z,101761.00
2022-10-13T16:54:56.841Z,101757.00
2022-10-13T16:57:31.280Z,101756.00
2022-10-13T17:00:01.494Z,101754.00
2022-10-13T17:02:35.796Z,101756.00
2022-10-13T17:05:05.342Z,101759.00
2022-10-13T17:07:34.482Z,101758.00
2022-10-13T17:10:08.082Z,101757.00
2022-10-13T17:12:37.296Z,101758.00
2022-10-13T17:15:12.479Z,101758.00
2022-10-13T17:17:42.576Z,101752.00
2022-10-13T17:20:13.796Z,101755.00
2022-10-13T17:22:50.233Z,101742.00
2022-10-13T17:25:25.111Z,101743.00
2022-10-13T17:27:59.687Z,101745.00
2022-10-13T17:30:29.226Z,101743.00
2022-10-13T17:33:06.904Z,101743.00
2022-10-13T17:35:39.160Z,101746.00
2022-10-13T17:38:15.802Z,101747.00
2022-10-13T17:40:50.012Z,101747.00
2022-10-13T17:43:25.680Z,101744.00
2022-10-13T17:46:07.469Z,101741.00
2022-10-13T17:48:47.632Z,101738.00
2022-10-13T17:51:21.266Z,101749.00
2022-10-13T17:53:54.364Z,101740.00
2022-10-13T17:56:28.838Z,101742.00
2022-10-13T17:58:58.396Z,101738.00
2022-10-13T18:01:30.179Z,101737.00
2022-10-13T18:04:02.723Z,101748.00
2022-10-13T18:06:40.142Z,101740.00
2022-10-13T18:09:15.747Z,101741.00
2022-10-13T18:11:50.556Z,101747.00
2022-10-13T18:14:22.475Z,101732.00
2022-10-13T18:16:52.713Z,101733.00
2022-10-13T18:19:24.072Z,101739.00
2022-10-13T18:21:55.342Z,101740.00
2022-10-13T18:24:25.411Z,101742.00
2022-10-13T18:26:59.463Z,101738.00
2022-10-13T18:29:31.443Z,101747.00
2022-10-13T18:32:02.864Z,101746.00
2022-10-13T18:34:32.258Z,101746.00
2022-10-13T18:37:05.849Z,101747.00
2022-10-13T18:39:35.625Z,101749.00
2022-10-13T18:42:07.345Z,101755.00
2022-10-13T18:44:37.079Z,101753.00
2022-10-13T18:47:10.553Z,101749.00
2022-10-13T18:49:40.059Z,101746.00
2022-10-13T18:52:09.733Z,101747.00
2022-10-13T18:54:46.517Z,101745.00
2022-10-13T18:57:19.881Z,101744.00
2022-10-13T18:59:51.898Z,101747.00
2022-10-13T19:02:28.721Z,101745.00
2022-10-13T19:05:00.407Z,101739.00
2022-10-13T19:07:29.910Z,101738.00
2022-10-13T19:10:00.280Z,101735.00
2022-10-13T19:12:38.311Z,101733.00
2022-10-13T19:15:09.293Z,101728.00
2022-10-13T19:17:38.637Z,101732.00
2022-10-13T19:20:09.170Z,101733.00
2022-10-13T19:22:38.669Z,101734.00
2022-10-13T19:25:10.329Z,101729.00
2022-10-13T19:27:45.650Z,101730.00
2022-10-13T19:30:18.946Z,101733.00
2022-10-13T19:32:55.943Z,101723.00
2022-10-13T19:35:28.837Z,101724.00
2022-10-13T19:38:19.714Z,101728.00
2022-10-13T19:40:52.838Z,101728.00
2022-10-13T19:43:27.294Z,101722.00
2022-10-13T19:45:59.792Z,101723.00
2022-10-13T19:48:30.281Z,101715.00
2022-10-13T19:51:01.921Z,101725.00
2022-10-13T19:53:31.482Z,101730.00
2022-10-13T19:56:00.976Z,101726.00
2022-10-13T19:58:32.108Z,101721.00
2022-10-13T20:01:05.747Z,101717.00
2022-10-13T20:03:35.131Z,101720.00
2022-10-13T20:06:07.444Z,101716.00
2022-10-13T20:08:42.082Z,101709.00
2022-10-13T20:11:15.151Z,101706.00
2022-10-13T20:13:49.706Z,101712.00
2022-10-13T20:16:22.762Z,101713.00
2022-10-13T20:18:54.389Z,101710.00
2022-10-13T20:21:25.172Z,101716.00
2022-10-13T20:23:54.815Z,101711.00
2022-10-13T20:26:25.142Z,101708.00
2022-10-13T20:28:58.249Z,101709.00
2022-10-13T20:31:28.070Z,101710.00
2022-10-13T20:34:00.782Z,101706.00
2022-10-13T20:36:38.506Z,101707.00
2022-10-13T20:39:09.252Z,101705.00
2022-10-13T20:41:38.451Z,101704.00
2022-10-13T20:44:10.388Z,101701.00
2022-10-13T20:46:39.521Z,101711.00
2022-10-13T20:49:12.589Z,101706.00
2022-10-13T20:51:43.726Z,101707.00
2022-10-13T20:54:17.041Z,101709.00
2022-10-13T20:56:47.301Z,101706.00
2022-10-13T20:59:17.465Z,101708.00
2022-10-13T21:01:46.448Z,101709.00
2022-10-13T21:04:15.181Z,101703.00
2022-10-13T21:06:44.290Z,101698.00
2022-10-13T21:09:13.385Z,101703.00
2022-10-13T21:11:43.977Z,101704.00
2022-10-13T21:14:12.959Z,101709.00
2022-10-13T21:16:43.385Z,101706.00
2022-10-13T21:19:13.441Z,101710.00
2022-10-13T21:21:42.291Z,101705.00
2022-10-13T21:24:12.311Z,101699.00
2022-10-13T21:26:42.235Z,101705.00
2022-10-13T21:29:16.052Z,101697.00
2022-10-13T21:31:46.264Z,101701.00
2022-10-13T21:34:15.032Z,101696.00
2022-10-13T21:36:45.047Z,101705.00
2022-10-13T21:39:15.554Z,101704.00
2022-10-13T21:41:44.389Z,101702.00
2022-10-13T21:44:15.110Z,101701.00
2022-10-13T21:46:47.493Z,101709.00
2022-10-13T21:49:17.185Z,101703.00
2022-10-13T21:51:54.799Z,101704.00
2022-10-13T21:54:23.773Z,101702.00
2022-10-13T21:56:53.193Z,101708.00
2022-10-13T21:59:24.313Z,101705.00
2022-10-13T22:01:56.905Z,101708.00
2022-10-13T22:04:26.123Z,101702.00
2022-10-13T22:06:54.912Z,101706.00
2022-10-13T22:09:27.186Z,101698.00
2022-10-13T22:12:00.775Z,101706.00
2022-10-13T22:14:33.167Z,101697.00
2022-10-13T22:17:05.713Z,101701.00
2022-10-13T22:19:34.582Z,101703.00
2022-10-13T22:22:07.181Z,101698.00
2022-10-13T22:24:36.414Z,101708.00
2022-10-13T22:27:05.988Z,101703.00
2022-10-13T22:29:37.439Z,101700.00
2022-10-13T22:32:08.699Z,101702.00
2022-10-13T22:34:38.045Z,101704.00
2022-10-13T22:37:06.689Z,101704.00
2022-10-13T22:39:35.488Z,101706.00
2022-10-13T22:42:10.599Z,101699.00
2022-10-13T22:44:39.320Z,101707.00
2022-10-13T22:47:09.407Z,101700.00
2022-10-13T22:49:38.106Z,101703.00
2022-10-13T22:52:07.379Z,101693.00
2022-10-13T22:54:36.166Z,101700.00
2022-10-13T22:57:04.877Z,101698.00
2022-10-13T22:59:33.616Z,101692.00
2022-10-13T23:02:02.312Z,101695.00
2022-10-13T23:04:32.375Z,101692.00
2022-10-13T23:07:01.408Z,101702.00
2022-10-13T23:09:31.132Z,101693.00
2022-10-13T23:12:00.096Z,101697.00
2022-10-13T23:14:30.048Z,101693.00
2022-10-13T23:16:59.125Z,101693.00
2022-10-13T23:19:27.881Z,101692.00
2022-10-13T23:21:59.068Z,101683.00
2022-10-13T23:24:27.854Z,101689.00
2022-10-13T23:27:00.477Z,101679.00
2022-10-13T23:29:29.504Z,101680.00
2022-10-13T23:31:58.236Z,101672.00
2022-10-13T23:34:29.098Z,101674.00
2022-10-13T23:36:59.377Z,101678.00
2022-10-13T23:39:29.564Z,101682.00
2022-10-13T23:41:58.911Z,101680.00
2022-10-13T23:44:27.607Z,101681.00
2022-10-13T23:46:57.484Z,101685.00
2022-10-13T23:49:26.175Z,101684.00
2022-10-13T23:51:55.025Z,101680.00
2022-10-13T23:54:25.281Z,101668.00
2022-10-13T23:56:53.965Z,101675.00
2022-10-13T23:59:22.580Z,101676.00
